Main page
METAR-TAF:

METAR-TAF

Airports :

Cristiano Ronaldo International Airport

Funchal, Madeira, Portugal

latitude: 32-41-52N, longitude: 016-46-28W, elevation: 59 m

Current weather observation

The report was made 25 minutes ago, at 01:30 UTC
Wind 5 kt from the Northwest
Temperature 17°C
Humidity 82%
Pressure 1017 hPa
Visibility 10 km or more
Few clouds at a height of 1500 ft

METAR: LPMA 110130Z 32005KT 9999 FEW015 17/14 Q1017

Time: 02:55 (01:55 UTC)

Forecast

The report was made 2 hours and 55 minutes ago, at 23:00 UTC
Forecast valid from 11 at 00 UTC to 11 at 24 UTC
Wind 5 kt from variable directions
Visibility 10 km or more
Scattered clouds at a height of 1500 ft
Temporary
from 11 at 00 UTC to 11 at 24 UTC
Visibility: 5000 m
Scattered clouds at a height of 800 ft
Broken clouds at a height of 1300 ft
light rain, drizzle
Becoming
from 11 at 09 UTC to 11 at 12 UTC
Wind 15 kt from the South/Southwest

TAF: LPMA 102300Z 1100/1124 VRB05KT 9999 SCT015 TEMPO 1100/1124 5000 -RADZ SCT008 BKN013 BECMG 1109/1112 21015KT

Weather observations and forecasts of more than 4000 airports (METAR and TAF reports).

The available stations are represented by yellow and red dots on the map.

Hover mouse over dot to see the name of the station.

Then click to see weather observations and forecasts.

To change the map : click on the green buttons with a black cross to zoom in, on the green button with a dash to zoom out, or on the green arrows for adjacent maps.


METAR-TAF: